sensor_id;sensor_type;location;lat;lon;timestamp;pressure;altitude;pressure_sealevel;temperature;humidity
70182;BME280;60060;42.060;-87.932;2022-07-06T00:02:05;98786.02;;;28.68;24.76
70182;BME280;60060;42.060;-87.932;2022-07-06T00:04:30;98807.26;;;28.95;24.46
70182;BME280;60060;42.060;-87.932;2022-07-06T00:06:56;98811.97;;;29.05;24.19
70182;BME280;60060;42.060;-87.932;2022-07-06T00:09:22;98793.68;;;29.05;24.01
70182;BME280;60060;42.060;-87.932;2022-07-06T00:11:47;98773.26;;;29.00;23.87
70182;BME280;60060;42.060;-87.932;2022-07-06T00:14:13;98769.36;;;28.86;23.83
70182;BME280;60060;42.060;-87.932;2022-07-06T00:16:38;98787.98;;;28.69;23.82
70182;BME280;60060;42.060;-87.932;2022-07-06T00:19:03;98781.82;;;28.68;23.68
70182;BME280;60060;42.060;-87.932;2022-07-06T00:21:29;98756.10;;;28.82;23.54
70182;BME280;60060;42.060;-87.932;2022-07-06T00:23:54;98719.36;;;28.39;23.63
70182;BME280;60060;42.060;-87.932;2022-07-06T00:26:20;98715.90;;;28.65;23.53
70182;BME280;60060;42.060;-87.932;2022-07-06T00:28:45;98735.97;;;28.42;23.45
70182;BME280;60060;42.060;-87.932;2022-07-06T00:31:11;98770.93;;;28.89;23.34
70182;BME280;60060;42.060;-87.932;2022-07-06T00:33:36;98792.67;;;28.73;23.15
70182;BME280;60060;42.060;-87.932;2022-07-06T00:36:02;98791.90;;;28.79;23.14
70182;BME280;60060;42.060;-87.932;2022-07-06T00:38:27;98781.70;;;28.54;23.21
70182;BME280;60060;42.060;-87.932;2022-07-06T00:40:53;98772.96;;;28.24;23.19
70182;BME280;60060;42.060;-87.932;2022-07-06T00:43:18;98772.74;;;28.47;23.06
70182;BME280;60060;42.060;-87.932;2022-07-06T00:45:43;98758.45;;;28.47;23.16
70182;BME280;60060;42.060;-87.932;2022-07-06T00:48:09;98729.88;;;28.15;23.21
70182;BME280;60060;42.060;-87.932;2022-07-06T00:50:35;98703.80;;;28.25;23.33
70182;BME280;60060;42.060;-87.932;2022-07-06T00:53:02;98707.97;;;28.07;23.32
70182;BME280;60060;42.060;-87.932;2022-07-06T00:55:27;98730.89;;;28.30;23.26
70182;BME280;60060;42.060;-87.932;2022-07-06T00:57:52;98732.94;;;27.79;23.21
70182;BME280;60060;42.060;-87.932;2022-07-06T01:00:18;98734.00;;;28.19;23.16
70182;BME280;60060;42.060;-87.932;2022-07-06T01:02:42;98733.25;;;28.17;23.20
70182;BME280;60060;42.060;-87.932;2022-07-06T01:05:09;98751.36;;;28.00;23.23
70182;BME280;60060;42.060;-87.932;2022-07-06T01:07:34;98788.11;;;28.11;23.18
70182;BME280;60060;42.060;-87.932;2022-07-06T01:09:58;98886.05;;;28.09;23.33
70182;BME280;60060;42.060;-87.932;2022-07-06T01:12:24;98926.78;;;28.08;23.39
70182;BME280;60060;42.060;-87.932;2022-07-06T01:14:50;98916.00;;;28.10;23.45
70182;BME280;60060;42.060;-87.932;2022-07-06T01:17:15;98864.90;;;28.12;23.44
70182;BME280;60060;42.060;-87.932;2022-07-06T01:19:40;98924.08;;;28.12;23.45
70182;BME280;60060;42.060;-87.932;2022-07-06T01:22:16;98932.53;;;28.05;23.45
70182;BME280;60060;42.060;-87.932;2022-07-06T01:24:31;98894.90;;;28.11;23.56
70182;BME280;60060;42.060;-87.932;2022-07-06T01:26:57;98927.94;;;27.92;24.10
70182;BME280;60060;42.060;-87.932;2022-07-06T01:29:22;98952.56;;;28.23;24.17
70182;BME280;60060;42.060;-87.932;2022-07-06T01:31:49;98926.44;;;28.29;24.40
70182;BME280;60060;42.060;-87.932;2022-07-06T01:34:13;98910.45;;;28.13;24.63
70182;BME280;60060;42.060;-87.932;2022-07-06T01:36:38;98929.06;;;28.23;24.81
70182;BME280;60060;42.060;-87.932;2022-07-06T01:39:04;98957.33;;;28.45;24.81
70182;BME280;60060;42.060;-87.932;2022-07-06T01:41:29;98985.18;;;28.43;24.76
70182;BME280;60060;42.060;-87.932;2022-07-06T01:43:55;98995.75;;;28.90;24.72
70182;BME280;60060;42.060;-87.932;2022-07-06T01:46:20;98995.99;;;28.80;24.75
70182;BME280;60060;42.060;-87.932;2022-07-06T01:48:46;99017.51;;;28.93;24.68
70182;BME280;60060;42.060;-87.932;2022-07-06T01:51:12;99022.35;;;28.82;24.62
70182;BME280;60060;42.060;-87.932;2022-07-06T01:53:37;98996.82;;;29.02;24.69
70182;BME280;60060;42.060;-87.932;2022-07-06T01:56:02;98983.02;;;29.03;24.77
70182;BME280;60060;42.060;-87.932;2022-07-06T01:58:27;99007.32;;;28.99;25.00
70182;BME280;60060;42.060;-87.932;2022-07-06T02:00:53;99005.64;;;28.91;25.14
70182;BME280;60060;42.060;-87.932;2022-07-06T02:03:18;99022.96;;;28.80;25.30
70182;BME280;60060;42.060;-87.932;2022-07-06T02:05:49;98952.82;;;28.70;25.47
70182;BME280;60060;42.060;-87.932;2022-07-06T02:08:09;98928.78;;;28.73;25.54
70182;BME280;60060;42.060;-87.932;2022-07-06T02:10:35;98949.56;;;28.58;25.57
70182;BME280;60060;42.060;-87.932;2022-07-06T02:13:00;98960.60;;;28.79;25.66
70182;BME280;60060;42.060;-87.932;2022-07-06T02:15:29;98972.30;;;28.75;25.80
70182;BME280;60060;42.060;-87.932;2022-07-06T02:17:52;98984.88;;;28.78;25.86
70182;BME280;60060;42.060;-87.932;2022-07-06T02:20:16;98989.72;;;28.53;25.94
70182;BME280;60060;42.060;-87.932;2022-07-06T02:22:42;99003.90;;;28.75;26.04
70182;BME280;60060;42.060;-87.932;2022-07-06T02:25:08;99018.92;;;28.78;26.03
70182;BME280;60060;42.060;-87.932;2022-07-06T02:27:33;99015.16;;;28.73;26.17
70182;BME280;60060;42.060;-87.932;2022-07-06T02:29:59;99008.86;;;28.77;26.22
70182;BME280;60060;42.060;-87.932;2022-07-06T02:32:24;99022.99;;;28.76;26.28
70182;BME280;60060;42.060;-87.932;2022-07-06T02:34:49;99040.76;;;28.61;26.21
70182;BME280;60060;42.060;-87.932;2022-07-06T02:37:15;99044.22;;;28.63;26.25
70182;BME280;60060;42.060;-87.932;2022-07-06T02:39:40;99028.53;;;28.90;26.28
70182;BME280;60060;42.060;-87.932;2022-07-06T02:42:06;99038.74;;;28.92;26.32
70182;BME280;60060;42.060;-87.932;2022-07-06T02:44:31;99052.24;;;28.91;26.40
70182;BME280;60060;42.060;-87.932;2022-07-06T02:46:57;99043.68;;;28.98;26.36
70182;BME280;60060;42.060;-87.932;2022-07-06T02:49:22;99022.51;;;28.76;26.39
70182;BME280;60060;42.060;-87.932;2022-07-06T02:51:47;99016.71;;;29.01;26.41
70182;BME280;60060;42.060;-87.932;2022-07-06T02:54:13;99021.91;;;29.01;26.45
70182;BME280;60060;42.060;-87.932;2022-07-06T02:56:38;99044.58;;;29.01;26.48
70182;BME280;60060;42.060;-87.932;2022-07-06T02:59:04;99050.55;;;29.02;26.52
70182;BME280;60060;42.060;-87.932;2022-07-06T03:01:30;99034.05;;;28.76;26.63
70182;BME280;60060;42.060;-87.932;2022-07-06T03:03:54;99035.67;;;29.05;26.68
70182;BME280;60060;42.060;-87.932;2022-07-06T03:06:20;99063.39;;;29.06;26.76
70182;BME280;60060;42.060;-87.932;2022-07-06T03:08:45;99082.01;;;29.04;26.83
70182;BME280;60060;42.060;-87.932;2022-07-06T03:11:11;99092.19;;;29.07;26.82
70182;BME280;60060;42.060;-87.932;2022-07-06T03:13:36;99094.90;;;29.16;26.75
70182;BME280;60060;42.060;-87.932;2022-07-06T03:16:02;99084.79;;;29.20;26.73
70182;BME280;60060;42.060;-87.932;2022-07-06T03:18:29;99094.87;;;29.26;26.66
70182;BME280;60060;42.060;-87.932;2022-07-06T03:20:53;99108.10;;;29.54;26.09
70182;BME280;60060;42.060;-87.932;2022-07-06T03:23:18;99089.65;;;29.79;25.36
70182;BME280;60060;42.060;-87.932;2022-07-06T03:25:44;99071.05;;;29.58;24.88
70182;BME280;60060;42.060;-87.932;2022-07-06T03:28:09;99104.37;;;29.46;25.08
70182;BME280;60060;42.060;-87.932;2022-07-06T03:30:34;99111.24;;;29.27;24.92
70182;BME280;60060;42.060;-87.932;2022-07-06T03:33:00;99089.00;;;29.02;24.86
70182;BME280;60060;42.060;-87.932;2022-07-06T03:35:25;99072.69;;;28.89;24.70
70182;BME280;60060;42.060;-87.932;2022-07-06T03:37:51;99040.33;;;28.75;24.56
70182;BME280;60060;42.060;-87.932;2022-07-06T03:40:16;99023.43;;;28.61;24.43
70182;BME280;60060;42.060;-87.932;2022-07-06T03:42:46;99012.10;;;28.74;24.27
70182;BME280;60060;42.060;-87.932;2022-07-06T03:45:09;98997.22;;;28.58;24.26
70182;BME280;60060;42.060;-87.932;2022-07-06T03:47:33;98977.84;;;28.24;24.22
70182;BME280;60060;42.060;-87.932;2022-07-06T03:49:58;98967.96;;;28.08;24.25
70182;BME280;60060;42.060;-87.932;2022-07-06T03:52:24;98987.16;;;28.17;24.32
70182;BME280;60060;42.060;-87.932;2022-07-06T03:54:49;98993.55;;;28.23;24.25
70182;BME280;60060;42.060;-87.932;2022-07-06T03:57:19;98981.40;;;28.18;24.17
70182;BME280;60060;42.060;-87.932;2022-07-06T03:59:40;98964.87;;;28.10;24.11
70182;BME280;60060;42.060;-87.932;2022-07-06T04:02:05;98965.50;;;28.03;23.96
70182;BME280;60060;42.060;-87.932;2022-07-06T04:04:31;98976.73;;;27.93;24.71
70182;BME280;60060;42.060;-87.932;2022-07-06T04:06:56;98999.77;;;28.18;24.64
70182;BME280;60060;42.060;-87.932;2022-07-06T04:09:22;99001.35;;;27.90;24.90
70182;BME280;60060;42.060;-87.932;2022-07-06T04:11:47;98960.20;;;28.16;25.10
70182;BME280;60060;42.060;-87.932;2022-07-06T04:14:13;98909.36;;;28.23;25.23
70182;BME280;60060;42.060;-87.932;2022-07-06T04:16:38;98896.31;;;28.12;25.24
70182;BME280;60060;42.060;-87.932;2022-07-06T04:19:04;98905.32;;;28.23;25.26
70182;BME280;60060;42.060;-87.932;2022-07-06T04:21:29;98932.17;;;28.05;25.31
70182;BME280;60060;42.060;-87.932;2022-07-06T04:23:55;98938.00;;;28.34;25.38
70182;BME280;60060;42.060;-87.932;2022-07-06T04:26:20;98903.60;;;28.39;25.42
70182;BME280;60060;42.060;-87.932;2022-07-06T04:28:46;98894.97;;;28.17;25.50
70182;BME280;60060;42.060;-87.932;2022-07-06T04:31:11;98899.00;;;28.21;25.56
70182;BME280;60060;42.060;-87.932;2022-07-06T04:33:37;98878.23;;;28.27;25.64
70182;BME280;60060;42.060;-87.932;2022-07-06T04:36:02;98878.42;;;28.22;25.81
70182;BME280;60060;42.060;-87.932;2022-07-06T04:38:27;98863.27;;;28.54;25.88
70182;BME280;60060;42.060;-87.932;2022-07-06T04:40:53;98874.67;;;28.37;25.88
70182;BME280;60060;42.060;-87.932;2022-07-06T04:43:18;98879.42;;;28.38;25.94
70182;BME280;60060;42.060;-87.932;2022-07-06T04:45:43;98875.05;;;28.39;25.98
70182;BME280;60060;42.060;-87.932;2022-07-06T04:48:09;98883.29;;;28.42;25.70
70182;BME280;60060;42.060;-87.932;2022-07-06T04:50:35;98883.81;;;28.39;25.28
70182;BME280;60060;42.060;-87.932;2022-07-06T04:53:00;98887.45;;;28.78;25.03
70182;BME280;60060;42.060;-87.932;2022-07-06T04:55:26;98897.72;;;28.35;24.93
70182;BME280;60060;42.060;-87.932;2022-07-06T04:57:51;98892.57;;;27.97;24.80
70182;BME280;60060;42.060;-87.932;2022-07-06T05:00:17;98892.55;;;28.14;25.44
70182;BME280;60060;42.060;-87.932;2022-07-06T05:02:41;98891.49;;;28.47;25.41
70182;BME280;60060;42.060;-87.932;2022-07-06T05:05:08;98893.81;;;28.37;25.59
70182;BME280;60060;42.060;-87.932;2022-07-06T05:07:33;98889.72;;;28.30;25.74
70182;BME280;60060;42.060;-87.932;2022-07-06T05:09:58;98885.10;;;28.09;25.81
70182;BME280;60060;42.060;-87.932;2022-07-06T05:12:23;98888.60;;;28.09;25.90
70182;BME280;60060;42.060;-87.932;2022-07-06T05:14:49;98894.77;;;27.98;25.87
70182;BME280;60060;42.060;-87.932;2022-07-06T05:17:14;98901.91;;;28.24;25.95
70182;BME280;60060;42.060;-87.932;2022-07-06T05:19:40;98913.12;;;28.05;26.05
70182;BME280;60060;42.060;-87.932;2022-07-06T05:22:05;98953.95;;;28.08;26.10
70182;BME280;60060;42.060;-87.932;2022-07-06T05:24:31;99091.20;;;28.31;26.23
70182;BME280;60060;42.060;-87.932;2022-07-06T05:26:56;99113.65;;;28.32;26.33
70182;BME280;60060;42.060;-87.932;2022-07-06T05:29:22;99074.53;;;28.13;26.38
70182;BME280;60060;42.060;-87.932;2022-07-06T05:31:47;99114.28;;;28.43;26.38
70182;BME280;60060;42.060;-87.932;2022-07-06T05:34:13;99117.87;;;28.38;26.43
70182;BME280;60060;42.060;-87.932;2022-07-06T05:36:38;99065.12;;;28.53;25.87
70182;BME280;60060;42.060;-87.932;2022-07-06T05:39:04;99080.54;;;28.45;25.53
70182;BME280;60060;42.060;-87.932;2022-07-06T05:41:29;99055.31;;;28.38;25.27
70182;BME280;60060;42.060;-87.932;2022-07-06T05:43:54;99042.77;;;28.14;25.17
70182;BME280;60060;42.060;-87.932;2022-07-06T05:46:20;99035.48;;;28.21;25.05
70182;BME280;60060;42.060;-87.932;2022-07-06T05:48:45;99020.80;;;27.91;24.81
70182;BME280;60060;42.060;-87.932;2022-07-06T05:51:11;99032.48;;;28.00;24.76
70182;BME280;60060;42.060;-87.932;2022-07-06T05:53:36;99034.64;;;27.83;24.66
70182;BME280;60060;42.060;-87.932;2022-07-06T05:56:02;99029.83;;;27.68;24.55
70182;BME280;60060;42.060;-87.932;2022-07-06T05:58:27;99031.74;;;27.62;25.22
70182;BME280;60060;42.060;-87.932;2022-07-06T06:00:52;99038.79;;;27.67;25.36
70182;BME280;60060;42.060;-87.932;2022-07-06T06:03:18;99042.01;;;27.66;25.55
70182;BME280;60060;42.060;-87.932;2022-07-06T06:05:43;99068.00;;;27.61;25.78
70182;BME280;60060;42.060;-87.932;2022-07-06T06:08:09;99088.69;;;27.60;25.90
70182;BME280;60060;42.060;-87.932;2022-07-06T06:10:34;99102.08;;;27.64;25.98
70182;BME280;60060;42.060;-87.932;2022-07-06T06:13:00;99102.03;;;27.74;25.99
70182;BME280;60060;42.060;-87.932;2022-07-06T06:15:25;99129.23;;;27.82;26.00
70182;BME280;60060;42.060;-87.932;2022-07-06T06:17:51;99145.41;;;27.92;26.01
70182;BME280;60060;42.060;-87.932;2022-07-06T06:20:16;99158.33;;;27.96;26.03
70182;BME280;60060;42.060;-87.932;2022-07-06T06:22:46;99178.38;;;27.99;26.08
70182;BME280;60060;42.060;-87.932;2022-07-06T06:25:07;99167.89;;;27.78;26.17
70182;BME280;60060;42.060;-87.932;2022-07-06T06:27:33;99129.59;;;27.87;25.73
70182;BME280;60060;42.060;-87.932;2022-07-06T06:29:58;99114.39;;;28.09;25.39
70182;BME280;60060;42.060;-87.932;2022-07-06T06:32:23;99093.65;;;28.09;25.01
70182;BME280;60060;42.060;-87.932;2022-07-06T06:34:49;99053.03;;;27.96;24.79
70182;BME280;60060;42.060;-87.932;2022-07-06T06:37:14;99039.34;;;27.51;24.72
70182;BME280;60060;42.060;-87.932;2022-07-06T06:39:40;99029.44;;;28.06;24.59
70182;BME280;60060;42.060;-87.932;2022-07-06T06:42:06;99008.45;;;27.44;24.56
70182;BME280;60060;42.060;-87.932;2022-07-06T06:44:31;98988.50;;;27.51;24.46
70182;BME280;60060;42.060;-87.932;2022-07-06T06:46:56;98977.76;;;27.55;25.06
70182;BME280;60060;42.060;-87.932;2022-07-06T06:49:22;98980.25;;;27.45;25.09
70182;BME280;60060;42.060;-87.932;2022-07-06T06:51:47;98975.26;;;27.33;25.39
70182;BME280;60060;42.060;-87.932;2022-07-06T06:54:13;98953.23;;;27.52;25.57
70182;BME280;60060;42.060;-87.932;2022-07-06T06:56:38;98936.07;;;27.31;25.68
70182;BME280;60060;42.060;-87.932;2022-07-06T06:59:03;98919.63;;;27.39;25.73
70182;BME280;60060;42.060;-87.932;2022-07-06T07:01:29;98912.32;;;27.68;25.78
70182;BME280;60060;42.060;-87.932;2022-07-06T07:03:54;98918.09;;;27.44;25.87
70182;BME280;60060;42.060;-87.932;2022-07-06T07:06:20;98929.52;;;27.45;25.94
70182;BME280;60060;42.060;-87.932;2022-07-06T07:08:45;98933.90;;;27.51;26.00
70182;BME280;60060;42.060;-87.932;2022-07-06T07:11:11;98936.80;;;27.56;26.11
70182;BME280;60060;42.060;-87.932;2022-07-06T07:13:36;98937.99;;;27.59;26.18
70182;BME280;60060;42.060;-87.932;2022-07-06T07:16:02;98924.63;;;27.69;26.18
70182;BME280;60060;42.060;-87.932;2022-07-06T07:18:27;98905.84;;;27.70;26.18
70182;BME280;60060;42.060;-87.932;2022-07-06T07:20:52;98897.08;;;27.78;25.68
70182;BME280;60060;42.060;-87.932;2022-07-06T07:23:18;98904.97;;;27.84;25.19
70182;BME280;60060;42.060;-87.932;2022-07-06T07:25:44;98910.49;;;27.75;24.87
70182;BME280;60060;42.060;-87.932;2022-07-06T07:28:09;98912.89;;;27.58;24.77
70182;BME280;60060;42.060;-87.932;2022-07-06T07:30:35;98917.59;;;27.36;24.73
70182;BME280;60060;42.060;-87.932;2022-07-06T07:33:00;98905.18;;;27.55;24.55
70182;BME280;60060;42.060;-87.932;2022-07-06T07:35:25;98913.11;;;27.35;24.60
70182;BME280;60060;42.060;-87.932;2022-07-06T07:37:51;98935.61;;;27.20;24.61
70182;BME280;60060;42.060;-87.932;2022-07-06T07:40:17;98927.93;;;27.61;25.14
70182;BME280;60060;42.060;-87.932;2022-07-06T07:42:42;98921.76;;;27.14;25.21
70182;BME280;60060;42.060;-87.932;2022-07-06T07:45:08;98925.28;;;27.12;25.36
70182;BME280;60060;42.060;-87.932;2022-07-06T07:47:33;98926.39;;;27.37;25.48
70182;BME280;60060;42.060;-87.932;2022-07-06T07:49:58;98916.06;;;27.40;25.55
70182;BME280;60060;42.060;-87.932;2022-07-06T07:52:24;98892.55;;;27.40;25.67
70182;BME280;60060;42.060;-87.932;2022-07-06T07:54:50;98884.43;;;27.45;25.74
70182;BME280;60060;42.060;-87.932;2022-07-06T07:57:15;98876.07;;;27.24;25.87
70182;BME280;60060;42.060;-87.932;2022-07-06T07:59:40;98867.87;;;27.32;25.92
70182;BME280;60060;42.060;-87.932;2022-07-06T08:02:06;98859.97;;;27.37;25.94
70182;BME280;60060;42.060;-87.932;2022-07-06T08:04:31;98864.51;;;27.38;25.99
70182;BME280;60060;42.060;-87.932;2022-07-06T08:06:57;98863.55;;;27.43;26.02
70182;BME280;60060;42.060;-87.932;2022-07-06T08:09:22;98867.26;;;27.45;26.07
70182;BME280;60060;42.060;-87.932;2022-07-06T08:11:47;98857.20;;;27.25;26.10
70182;BME280;60060;42.060;-87.932;2022-07-06T08:14:13;98833.53;;;27.54;26.10
70182;BME280;60060;42.060;-87.932;2022-07-06T08:16:38;98787.06;;;27.54;26.16
70182;BME280;60060;42.060;-87.932;2022-07-06T08:19:04;98784.34;;;27.53;26.27
70182;BME280;60060;42.060;-87.932;2022-07-06T08:21:29;98816.87;;;27.48;25.54
70182;BME280;60060;42.060;-87.932;2022-07-06T08:23:55;98822.13;;;27.69;25.19
70182;BME280;60060;42.060;-87.932;2022-07-06T08:26:20;98810.16;;;27.86;24.93
70182;BME280;60060;42.060;-87.932;2022-07-06T08:28:46;98792.71;;;27.49;24.69
70182;BME280;60060;42.060;-87.932;2022-07-06T08:31:12;98792.89;;;27.46;24.67
70182;BME280;60060;42.060;-87.932;2022-07-06T08:33:37;98804.93;;;27.35;24.57
70182;BME280;60060;42.060;-87.932;2022-07-06T08:36:02;98808.38;;;27.06;25.19
70182;BME280;60060;42.060;-87.932;2022-07-06T08:38:28;98809.49;;;27.57;25.16
70182;BME280;60060;42.060;-87.932;2022-07-06T08:40:53;98805.87;;;27.27;25.42
70182;BME280;60060;42.060;-87.932;2022-07-06T08:43:19;98808.56;;;27.18;25.68
70182;BME280;60060;42.060;-87.932;2022-07-06T08:45:45;98820.00;;;26.96;25.80
70182;BME280;60060;42.060;-87.932;2022-07-06T08:48:10;98832.01;;;27.03;25.85
70182;BME280;60060;42.060;-87.932;2022-07-06T08:50:35;98834.00;;;27.26;25.97
70182;BME280;60060;42.060;-87.932;2022-07-06T08:53:00;98837.42;;;27.33;25.97
70182;BME280;60060;42.060;-87.932;2022-07-06T08:55:26;98846.27;;;27.19;25.95
70182;BME280;60060;42.060;-87.932;2022-07-06T08:57:51;98872.81;;;27.02;25.96
70182;BME280;60060;42.060;-87.932;2022-07-06T09:00:17;98895.18;;;27.30;26.00
70182;BME280;60060;42.060;-87.932;2022-07-06T09:02:43;98905.67;;;27.34;26.09
70182;BME280;60060;42.060;-87.932;2022-07-06T09:05:09;98919.42;;;27.36;26.17
70182;BME280;60060;42.060;-87.932;2022-07-06T09:07:34;98923.78;;;27.38;26.22
70182;BME280;60060;42.060;-87.932;2022-07-06T09:10:00;98939.86;;;27.61;26.29
70182;BME280;60060;42.060;-87.932;2022-07-06T09:12:27;98960.46;;;27.41;26.32
70182;BME280;60060;42.060;-87.932;2022-07-06T09:14:49;98979.14;;;27.44;26.14
70182;BME280;60060;42.060;-87.932;2022-07-06T09:17:15;98989.98;;;27.59;25.45
70182;BME280;60060;42.060;-87.932;2022-07-06T09:19:40;99002.82;;;27.81;25.08
70182;BME280;60060;42.060;-87.932;2022-07-06T09:22:06;99009.40;;;27.67;24.92
70182;BME280;60060;42.060;-87.932;2022-07-06T09:24:32;98989.93;;;27.56;24.76
70182;BME280;60060;42.060;-87.932;2022-07-06T09:26:57;98959.49;;;27.63;24.65
70182;BME280;60060;42.060;-87.932;2022-07-06T09:29:27;98973.20;;;27.42;24.67
70182;BME280;60060;42.060;-87.932;2022-07-06T09:31:57;98977.70;;;27.05;25.32
70182;BME280;60060;42.060;-87.932;2022-07-06T09:34:13;98979.58;;;27.36;25.35
70182;BME280;60060;42.060;-87.932;2022-07-06T09:36:42;98992.87;;;27.04;25.57
70182;BME280;60060;42.060;-87.932;2022-07-06T09:41:33;99018.15;;;27.02;25.84
70182;BME280;60060;42.060;-87.932;2022-07-06T09:43:55;99014.23;;;27.28;25.92
70182;BME280;60060;42.060;-87.932;2022-07-06T09:46:20;98999.78;;;26.88;25.96
70182;BME280;60060;42.060;-87.932;2022-07-06T09:48:46;99008.04;;;27.24;25.99
70182;BME280;60060;42.060;-87.932;2022-07-06T09:51:15;99019.55;;;27.05;26.12
70182;BME280;60060;42.060;-87.932;2022-07-06T09:53:37;99017.11;;;27.12;26.12
70182;BME280;60060;42.060;-87.932;2022-07-06T09:56:02;99017.41;;;27.36;26.20
70182;BME280;60060;42.060;-87.932;2022-07-06T09:58:28;99030.09;;;27.17;26.22
70182;BME280;60060;42.060;-87.932;2022-07-06T10:00:53;99037.98;;;27.18;26.29
70182;BME280;60060;42.060;-87.932;2022-07-06T10:03:18;99036.18;;;27.44;26.35
70182;BME280;60060;42.060;-87.932;2022-07-06T10:05:45;99040.57;;;27.21;26.41
70182;BME280;60060;42.060;-87.932;2022-07-06T10:08:10;99036.49;;;27.23;26.44
70182;BME280;60060;42.060;-87.932;2022-07-06T10:10:37;99038.56;;;27.55;26.00
70182;BME280;60060;42.060;-87.932;2022-07-06T10:13:01;99034.73;;;27.56;25.58
70182;BME280;60060;42.060;-87.932;2022-07-06T10:15:28;99037.36;;;27.50;25.29
70182;BME280;60060;42.060;-87.932;2022-07-06T10:17:52;99044.90;;;27.41;25.00
70182;BME280;60060;42.060;-87.932;2022-07-06T10:20:17;99045.52;;;27.34;24.79
70182;BME280;60060;42.060;-87.932;2022-07-06T10:22:42;99052.74;;;27.22;24.57
70182;BME280;60060;42.060;-87.932;2022-07-06T10:25:08;99062.57;;;27.14;25.28
70182;BME280;60060;42.060;-87.932;2022-07-06T10:27:33;99075.38;;;27.41;25.27
70182;BME280;60060;42.060;-87.932;2022-07-06T10:29:58;99073.38;;;27.21;25.67
70182;BME280;60060;42.060;-87.932;2022-07-06T10:32:25;99066.85;;;27.16;25.90
70182;BME280;60060;42.060;-87.932;2022-07-06T10:34:50;99066.02;;;27.17;26.11
70182;BME280;60060;42.060;-87.932;2022-07-06T10:37:23;99065.67;;;26.98;26.17
70182;BME280;60060;42.060;-87.932;2022-07-06T10:39:41;99062.83;;;27.00;26.24
70182;BME280;60060;42.060;-87.932;2022-07-06T10:42:06;99064.18;;;27.32;26.25
70182;BME280;60060;42.060;-87.932;2022-07-06T10:44:31;99072.15;;;26.87;26.28
70182;BME280;60060;42.060;-87.932;2022-07-06T10:46:58;99073.89;;;26.94;26.27
70182;BME280;60060;42.060;-87.932;2022-07-06T10:49:23;99076.87;;;27.22;26.30
70182;BME280;60060;42.060;-87.932;2022-07-06T10:51:48;99072.89;;;27.25;26.33
70182;BME280;60060;42.060;-87.932;2022-07-06T10:54:14;99072.50;;;27.26;26.43
70182;BME280;60060;42.060;-87.932;2022-07-06T10:56:41;99079.28;;;27.05;26.52
70182;BME280;60060;42.060;-87.932;2022-07-06T10:59:09;99085.17;;;27.31;26.60
70182;BME280;60060;42.060;-87.932;2022-07-06T11:01:29;99082.83;;;27.33;26.64
70182;BME280;60060;42.060;-87.932;2022-07-06T11:04:05;99077.06;;;27.14;26.64
70182;BME280;60060;42.060;-87.932;2022-07-06T11:06:21;99075.86;;;27.44;26.19
70182;BME280;60060;42.060;-87.932;2022-07-06T11:08:49;99077.48;;;27.73;25.65
70182;BME280;60060;42.060;-87.932;2022-07-06T11:11:13;99078.58;;;27.51;25.24
70182;BME280;60060;42.060;-87.932;2022-07-06T11:13:44;99081.69;;;27.42;24.97
70182;BME280;60060;42.060;-87.932;2022-07-06T11:16:02;99089.83;;;27.23;24.82
70182;BME280;60060;42.060;-87.932;2022-07-06T11:18:28;99093.43;;;27.05;24.76
70182;BME280;60060;42.060;-87.932;2022-07-06T11:23:19;99099.11;;;26.91;25.36
70182;BME280;60060;42.060;-87.932;2022-07-06T11:25:44;99094.58;;;26.91;25.44
70182;BME280;60060;42.060;-87.932;2022-07-06T11:28:11;99091.55;;;27.03;25.67
70182;BME280;60060;42.060;-87.932;2022-07-06T11:30:35;99093.10;;;26.67;25.88
70182;BME280;60060;42.060;-87.932;2022-07-06T11:33:00;99095.68;;;26.72;25.96
70182;BME280;60060;42.060;-87.932;2022-07-06T11:35:26;99094.48;;;26.73;26.04
70182;BME280;60060;42.060;-87.932;2022-07-06T11:37:52;99103.10;;;26.77;26.11
70182;BME280;60060;42.060;-87.932;2022-07-06T11:40:19;99107.29;;;26.56;26.21
70182;BME280;60060;42.060;-87.932;2022-07-06T11:42:52;99098.11;;;26.90;26.28
70182;BME280;60060;42.060;-87.932;2022-07-06T11:45:09;99098.71;;;26.74;26.29
70182;BME280;60060;42.060;-87.932;2022-07-06T11:47:33;99100.57;;;27.07;26.24
70182;BME280;60060;42.060;-87.932;2022-07-06T11:49:58;99104.19;;;27.12;26.27
70182;BME280;60060;42.060;-87.932;2022-07-06T11:52:24;99098.72;;;27.08;26.37
70182;BME280;60060;42.060;-87.932;2022-07-06T11:54:56;99091.07;;;27.31;26.44
70182;BME280;60060;42.060;-87.932;2022-07-06T11:57:15;99087.96;;;27.10;26.46
70182;BME280;60060;42.060;-87.932;2022-07-06T11:59:41;99090.87;;;27.11;26.52
70182;BME280;60060;42.060;-87.932;2022-07-06T12:02:08;99092.98;;;27.13;26.58
70182;BME280;60060;42.060;-87.932;2022-07-06T12:04:33;99088.43;;;27.20;26.62
70182;BME280;60060;42.060;-87.932;2022-07-06T12:07:01;99091.99;;;26.98;26.66
70182;BME280;60060;42.060;-87.932;2022-07-06T12:09:22;99094.10;;;27.06;26.53
70182;BME280;60060;42.060;-87.932;2022-07-06T12:11:48;99094.94;;;27.39;25.81
70182;BME280;60060;42.060;-87.932;2022-07-06T12:14:15;99097.13;;;27.18;25.37
70182;BME280;60060;42.060;-87.932;2022-07-06T12:16:39;99092.65;;;27.37;25.01
70182;BME280;60060;42.060;-87.932;2022-07-06T12:19:05;99094.48;;;27.23;24.77
70182;BME280;60060;42.060;-87.932;2022-07-06T12:21:30;99095.91;;;27.11;24.63
70182;BME280;60060;42.060;-87.932;2022-07-06T12:23:56;99088.87;;;26.84;24.64
70182;BME280;60060;42.060;-87.932;2022-07-06T12:26:22;99090.41;;;26.91;24.68
70182;BME280;60060;42.060;-87.932;2022-07-06T12:28:46;99089.36;;;26.94;25.37
70182;BME280;60060;42.060;-87.932;2022-07-06T12:33:37;99089.86;;;26.88;25.64
70182;BME280;60060;42.060;-87.932;2022-07-06T12:36:13;99098.30;;;26.58;25.83
70182;BME280;60060;42.060;-87.932;2022-07-06T12:38:28;99106.25;;;26.56;25.96